sensor_id;sensor_type;location;lat;lon;timestamp;pressure;altitude;pressure_sealevel;temperature;humidity
38038;BME280;23843;51.320;12.340;2024-03-07T00:02:00;101193.13;;;7.71;60.83
38038;BME280;23843;51.320;12.340;2024-03-07T00:04:46;101190.38;;;7.71;60.76
38038;BME280;23843;51.320;12.340;2024-03-07T00:07:31;101188.66;;;7.70;59.92
38038;BME280;23843;51.320;12.340;2024-03-07T00:10:18;101195.41;;;7.67;60.62
38038;BME280;23843;51.320;12.340;2024-03-07T00:13:04;101203.44;;;7.62;60.51
38038;BME280;23843;51.320;12.340;2024-03-07T00:15:50;101192.13;;;7.57;60.52
38038;BME280;23843;51.320;12.340;2024-03-07T00:18:35;101195.09;;;7.56;60.44
38038;BME280;23843;51.320;12.340;2024-03-07T00:21:23;101189.09;;;7.52;60.89
38038;BME280;23843;51.320;12.340;2024-03-07T00:24:08;101199.31;;;7.52;61.00
38038;BME280;23843;51.320;12.340;2024-03-07T00:26:55;101194.63;;;7.52;60.39
38038;BME280;23843;51.320;12.340;2024-03-07T00:29:41;101201.22;;;7.51;61.08
38038;BME280;23843;51.320;12.340;2024-03-07T00:32:26;101199.31;;;7.52;61.09
38038;BME280;23843;51.320;12.340;2024-03-07T00:35:12;101192.06;;;7.51;60.86
38038;BME280;23843;51.320;12.340;2024-03-07T00:37:57;101196.72;;;7.50;60.54
38038;BME280;23843;51.320;12.340;2024-03-07T00:40:43;101198.63;;;7.50;61.14
38038;BME280;23843;51.320;12.340;2024-03-07T00:43:30;101195.59;;;7.45;61.21
38038;BME280;23843;51.320;12.340;2024-03-07T00:46:15;101191.50;;;7.40;60.69
38038;BME280;23843;51.320;12.340;2024-03-07T00:49:01;101190.19;;;7.36;61.38
38038;BME280;23843;51.320;12.340;2024-03-07T00:51:46;101185.72;;;7.35;61.47
38038;BME280;23843;51.320;12.340;2024-03-07T00:54:32;101187.78;;;7.33;61.57
38038;BME280;23843;51.320;12.340;2024-03-07T00:57:18;101188.22;;;7.30;62.09
38038;BME280;23843;51.320;12.340;2024-03-07T01:00:06;101175.63;;;7.28;62.10
38038;BME280;23843;51.320;12.340;2024-03-07T01:02:52;101182.47;;;7.32;61.57
38038;BME280;23843;51.320;12.340;2024-03-07T01:05:37;101172.25;;;7.32;61.37
38038;BME280;23843;51.320;12.340;2024-03-07T01:08:23;101172.75;;;7.36;62.21
38038;BME280;23843;51.320;12.340;2024-03-07T01:11:08;101164.91;;;7.39;62.65
38038;BME280;23843;51.320;12.340;2024-03-07T01:13:54;101168.16;;;7.43;61.92
38038;BME280;23843;51.320;12.340;2024-03-07T01:16:41;101164.13;;;7.46;61.64
38038;BME280;23843;51.320;12.340;2024-03-07T01:19:27;101166.69;;;7.47;61.83
38038;BME280;23843;51.320;12.340;2024-03-07T01:22:12;101168.22;;;7.50;61.88
38038;BME280;23843;51.320;12.340;2024-03-07T01:24:58;101164.78;;;7.48;61.83
38038;BME280;23843;51.320;12.340;2024-03-07T01:27:43;101164.78;;;7.48;61.86
38038;BME280;23843;51.320;12.340;2024-03-07T01:30:31;101157.84;;;7.52;61.66
38038;BME280;23843;51.320;12.340;2024-03-07T01:33:18;101161.47;;;7.52;62.12
38038;BME280;23843;51.320;12.340;2024-03-07T01:36:06;101163.81;;;7.55;62.43
38038;BME280;23843;51.320;12.340;2024-03-07T01:38:51;101160.19;;;7.55;62.72
38038;BME280;23843;51.320;12.340;2024-03-07T01:41:37;101165.72;;;7.55;62.29
38038;BME280;23843;51.320;12.340;2024-03-07T01:44:22;101157.22;;;7.56;62.61
38038;BME280;23843;51.320;12.340;2024-03-07T01:47:07;101154.28;;;7.58;62.12
38038;BME280;23843;51.320;12.340;2024-03-07T01:49:55;101155.13;;;7.58;62.72
38038;BME280;23843;51.320;12.340;2024-03-07T01:52:41;101145.13;;;7.57;62.45
38038;BME280;23843;51.320;12.340;2024-03-07T01:55:27;101151.31;;;7.59;62.97
38038;BME280;23843;51.320;12.340;2024-03-07T01:58:14;101143.84;;;7.60;62.13
38038;BME280;23843;51.320;12.340;2024-03-07T02:01:03;101147.28;;;7.62;62.74
38038;BME280;23843;51.320;12.340;2024-03-07T02:03:48;101144.13;;;7.65;63.09
38038;BME280;23843;51.320;12.340;2024-03-07T02:06:35;101144.59;;;7.68;62.94
38038;BME280;23843;51.320;12.340;2024-03-07T02:09:21;101142.03;;;7.67;62.81
38038;BME280;23843;51.320;12.340;2024-03-07T02:12:07;101139.28;;;7.67;63.00
38038;BME280;23843;51.320;12.340;2024-03-07T02:14:56;101132.88;;;7.66;62.88
38038;BME280;23843;51.320;12.340;2024-03-07T02:17:41;101132.66;;;7.68;62.32
38038;BME280;23843;51.320;12.340;2024-03-07T02:20:26;101132.66;;;7.68;63.10
38038;BME280;23843;51.320;12.340;2024-03-07T02:23:13;101131.63;;;7.69;62.78
38038;BME280;23843;51.320;12.340;2024-03-07T02:25:59;101124.19;;;7.69;62.76
38038;BME280;23843;51.320;12.340;2024-03-07T02:28:44;101127.63;;;7.71;62.72
38038;BME280;23843;51.320;12.340;2024-03-07T02:31:30;101125.91;;;7.70;62.95
38038;BME280;23843;51.320;12.340;2024-03-07T02:34:15;101119.50;;;7.70;63.02
38038;BME280;23843;51.320;12.340;2024-03-07T02:37:01;101126.75;;;7.71;62.67
38038;BME280;23843;51.320;12.340;2024-03-07T02:39:47;101116.56;;;7.71;63.04
38038;BME280;23843;51.320;12.340;2024-03-07T02:42:33;101115.69;;;7.71;62.68
38038;BME280;23843;51.320;12.340;2024-03-07T02:45:18;101114.84;;;7.70;62.60
38038;BME280;23843;51.320;12.340;2024-03-07T02:48:05;101109.31;;;7.70;62.67
38038;BME280;23843;51.320;12.340;2024-03-07T02:50:50;101111.88;;;7.72;63.62
38038;BME280;23843;51.320;12.340;2024-03-07T02:53:35;101116.75;;;7.70;62.70
38038;BME280;23843;51.320;12.340;2024-03-07T02:56:22;101115.22;;;7.67;63.24
38038;BME280;23843;51.320;12.340;2024-03-07T02:59:08;101113.31;;;7.68;62.87
38038;BME280;23843;51.320;12.340;2024-03-07T03:01:53;101116.06;;;7.68;63.37
38038;BME280;23843;51.320;12.340;2024-03-07T03:04:39;101112.25;;;7.69;62.78
38038;BME280;23843;51.320;12.340;2024-03-07T03:07:24;101109.69;;;7.67;63.41
38038;BME280;23843;51.320;12.340;2024-03-07T03:10:09;101112.44;;;7.67;63.54
38038;BME280;23843;51.320;12.340;2024-03-07T03:12:57;101114.59;;;7.65;63.04
38038;BME280;23843;51.320;12.340;2024-03-07T03:15:43;101108.56;;;7.62;63.39
38038;BME280;23843;51.320;12.340;2024-03-07T03:18:28;101113.66;;;7.58;63.12
38038;BME280;23843;51.320;12.340;2024-03-07T03:21:14;101109.97;;;7.51;63.28
38038;BME280;23843;51.320;12.340;2024-03-07T03:23:59;101113.13;;;7.48;63.12
38038;BME280;23843;51.320;12.340;2024-03-07T03:26:45;101112.88;;;7.43;63.53
38038;BME280;23843;51.320;12.340;2024-03-07T03:29:31;101112.38;;;7.39;64.08
38038;BME280;23843;51.320;12.340;2024-03-07T03:32:17;101109.81;;;7.38;63.71
38038;BME280;23843;51.320;12.340;2024-03-07T03:35:03;101106.41;;;7.36;63.81
38038;BME280;23843;51.320;12.340;2024-03-07T03:37:48;101108.97;;;7.37;64.82
38038;BME280;23843;51.320;12.340;2024-03-07T03:40:34;101106.84;;;7.39;63.97
38038;BME280;23843;51.320;12.340;2024-03-07T03:43:20;101107.72;;;7.40;64.60
38038;BME280;23843;51.320;12.340;2024-03-07T03:46:09;101106.84;;;7.39;64.27
38038;BME280;23843;51.320;12.340;2024-03-07T03:48:55;101106.22;;;7.37;63.78
38038;BME280;23843;51.320;12.340;2024-03-07T03:51:40;101105.75;;;7.34;64.19
38038;BME280;23843;51.320;12.340;2024-03-07T03:54:25;101105.56;;;7.35;64.63
38038;BME280;23843;51.320;12.340;2024-03-07T03:57:11;101106.22;;;7.37;64.79
38038;BME280;23843;51.320;12.340;2024-03-07T03:59:56;101096.84;;;7.38;64.27
38038;BME280;23843;51.320;12.340;2024-03-07T04:02:44;101102.84;;;7.42;64.68
38038;BME280;23843;51.320;12.340;2024-03-07T04:05:30;101094.56;;;7.42;64.41
38038;BME280;23843;51.320;12.340;2024-03-07T04:08:15;101090.75;;;7.43;64.42
38038;BME280;23843;51.320;12.340;2024-03-07T04:11:01;101100.94;;;7.42;65.19
38038;BME280;23843;51.320;12.340;2024-03-07T04:13:46;101112.00;;;7.42;64.39
38038;BME280;23843;51.320;12.340;2024-03-07T04:16:32;101112.00;;;7.42;64.32
38038;BME280;23843;51.320;12.340;2024-03-07T04:19:18;101102.66;;;7.43;64.00
38038;BME280;23843;51.320;12.340;2024-03-07T04:22:04;101094.56;;;7.42;65.11
38038;BME280;23843;51.320;12.340;2024-03-07T04:24:49;101094.38;;;7.43;65.02
38038;BME280;23843;51.320;12.340;2024-03-07T04:27:35;101101.13;;;7.41;64.42
38038;BME280;23843;51.320;12.340;2024-03-07T04:30:21;101093.69;;;7.41;64.93
38038;BME280;23843;51.320;12.340;2024-03-07T04:33:06;101090.28;;;7.39;64.75
38038;BME280;23843;51.320;12.340;2024-03-07T04:35:53;101102.84;;;7.42;65.87
38038;BME280;23843;51.320;12.340;2024-03-07T04:38:39;101097.50;;;7.40;65.19
38038;BME280;23843;51.320;12.340;2024-03-07T04:41:24;101106.66;;;7.41;65.54
38038;BME280;23843;51.320;12.340;2024-03-07T04:44:09;101100.88;;;7.36;65.28
38038;BME280;23843;51.320;12.340;2024-03-07T04:46:55;101098.50;;;7.33;65.66
38038;BME280;23843;51.320;12.340;2024-03-07T04:49:40;101101.66;;;7.30;65.28
38038;BME280;23843;51.320;12.340;2024-03-07T04:52:27;101101.00;;;7.28;65.02
38038;BME280;23843;51.320;12.340;2024-03-07T04:55:13;101106.53;;;7.28;65.53
38038;BME280;23843;51.320;12.340;2024-03-07T04:57:58;101102.91;;;7.27;64.98
38038;BME280;23843;51.320;12.340;2024-03-07T05:00:44;101103.75;;;7.28;64.83
38038;BME280;23843;51.320;12.340;2024-03-07T05:03:29;101102.72;;;7.29;65.03
38038;BME280;23843;51.320;12.340;2024-03-07T05:06:15;101105.66;;;7.27;65.94
38038;BME280;23843;51.320;12.340;2024-03-07T05:09:02;101101.19;;;7.26;65.32
38038;BME280;23843;51.320;12.340;2024-03-07T05:11:48;101104.56;;;7.22;65.44
38038;BME280;23843;51.320;12.340;2024-03-07T05:14:34;101107.25;;;7.15;65.79
38038;BME280;23843;51.320;12.340;2024-03-07T05:17:19;101111.06;;;7.14;65.89
38038;BME280;23843;51.320;12.340;2024-03-07T05:20:06;101106.56;;;7.13;65.94
38038;BME280;23843;51.320;12.340;2024-03-07T05:22:51;101121.44;;;7.12;66.32
38038;BME280;23843;51.320;12.340;2024-03-07T05:25:38;101122.66;;;7.10;66.87
38038;BME280;23843;51.320;12.340;2024-03-07T05:28:23;101113.75;;;7.08;66.00
38038;BME280;23843;51.320;12.340;2024-03-07T05:31:09;101122.22;;;7.06;65.93
38038;BME280;23843;51.320;12.340;2024-03-07T05:33:54;101122.41;;;7.04;67.03
38038;BME280;23843;51.320;12.340;2024-03-07T05:36:40;101111.53;;;7.03;66.26
38038;BME280;23843;51.320;12.340;2024-03-07T05:39:26;101117.91;;;7.03;66.29
38038;BME280;23843;51.320;12.340;2024-03-07T05:42:12;101118.97;;;7.02;66.81
38038;BME280;23843;51.320;12.340;2024-03-07T05:44:58;101123.84;;;7.00;66.17
38038;BME280;23843;51.320;12.340;2024-03-07T05:47:43;101120.78;;;6.95;66.28
38038;BME280;23843;51.320;12.340;2024-03-07T05:50:29;101125.38;;;6.88;67.32
38038;BME280;23843;51.320;12.340;2024-03-07T05:53:14;101128.53;;;6.85;66.60
38038;BME280;23843;51.320;12.340;2024-03-07T05:56:00;101127.38;;;6.80;66.15
38038;BME280;23843;51.320;12.340;2024-03-07T05:58:46;101129.50;;;6.78;66.22
38038;BME280;23843;51.320;12.340;2024-03-07T06:01:37;101141.97;;;6.74;66.31
38038;BME280;23843;51.320;12.340;2024-03-07T06:04:23;101129.78;;;6.68;66.76
38038;BME280;23843;51.320;12.340;2024-03-07T06:07:09;101128.25;;;6.65;66.63
38038;BME280;23843;51.320;12.340;2024-03-07T06:09:54;101136.53;;;6.65;66.93
38038;BME280;23843;51.320;12.340;2024-03-07T06:12:40;101143.13;;;6.64;66.34
38038;BME280;23843;51.320;12.340;2024-03-07T06:15:26;101140.72;;;6.61;66.24
38038;BME280;23843;51.320;12.340;2024-03-07T06:18:12;101142.44;;;6.62;67.34
38038;BME280;23843;51.320;12.340;2024-03-07T06:20:57;101148.25;;;6.68;66.36
38038;BME280;23843;51.320;12.340;2024-03-07T06:23:43;101139.59;;;6.71;66.19
38038;BME280;23843;51.320;12.340;2024-03-07T06:26:30;101146.63;;;6.73;66.23
38038;BME280;23843;51.320;12.340;2024-03-07T06:29:17;101151.97;;;6.75;66.54
38038;BME280;23843;51.320;12.340;2024-03-07T06:32:05;101163.69;;;6.77;66.72
38038;BME280;23843;51.320;12.340;2024-03-07T06:34:51;101158.84;;;6.79;66.75
38038;BME280;23843;51.320;12.340;2024-03-07T06:37:36;101157.13;;;6.78;66.62
38038;BME280;23843;51.320;12.340;2024-03-07T06:40:22;101175.78;;;6.76;66.66
38038;BME280;23843;51.320;12.340;2024-03-07T06:43:08;101168.06;;;6.71;66.12
38038;BME280;23843;51.320;12.340;2024-03-07T06:45:54;101167.75;;;6.81;66.61
38038;BME280;23843;51.320;12.340;2024-03-07T06:48:42;101170.13;;;6.98;66.63
38038;BME280;23843;51.320;12.340;2024-03-07T06:51:27;101166.84;;;7.24;66.38
38038;BME280;23843;51.320;12.340;2024-03-07T06:54:13;101164.59;;;7.49;66.38
38038;BME280;23843;51.320;12.340;2024-03-07T06:56:59;101170.34;;;7.69;66.36
38038;BME280;23843;51.320;12.340;2024-03-07T06:59:45;101166.53;;;7.91;66.65
38038;BME280;23843;51.320;12.340;2024-03-07T07:02:30;101175.84;;;8.11;65.36
38038;BME280;23843;51.320;12.340;2024-03-07T07:05:18;101172.56;;;8.23;65.17
38038;BME280;23843;51.320;12.340;2024-03-07T07:08:04;101175.66;;;8.34;64.91
38038;BME280;23843;51.320;12.340;2024-03-07T07:10:50;101172.94;;;8.41;65.13
38038;BME280;23843;51.320;12.340;2024-03-07T07:13:36;101175.56;;;8.49;64.80
38038;BME280;23843;51.320;12.340;2024-03-07T07:16:21;101180.09;;;8.56;64.94
38038;BME280;23843;51.320;12.340;2024-03-07T07:19:07;101182.91;;;8.63;64.63
38038;BME280;23843;51.320;12.340;2024-03-07T07:21:54;101182.28;;;8.61;64.56
38038;BME280;23843;51.320;12.340;2024-03-07T07:24:40;101176.88;;;8.53;64.00
38038;BME280;23843;51.320;12.340;2024-03-07T07:27:26;101180.19;;;8.42;63.57
38038;BME280;23843;51.320;12.340;2024-03-07T07:30:13;101179.94;;;8.37;63.76
38038;BME280;23843;51.320;12.340;2024-03-07T07:32:59;101175.31;;;8.44;64.26
38038;BME280;23843;51.320;12.340;2024-03-07T07:35:45;101186.00;;;8.47;64.04
38038;BME280;23843;51.320;12.340;2024-03-07T07:38:32;101182.81;;;8.50;63.33
38038;BME280;23843;51.320;12.340;2024-03-07T07:41:18;101181.50;;;8.46;63.08
38038;BME280;23843;51.320;12.340;2024-03-07T07:44:03;101172.16;;;8.47;63.03
38038;BME280;23843;51.320;12.340;2024-03-07T07:46:49;101177.75;;;8.53;63.25
38038;BME280;23843;51.320;12.340;2024-03-07T07:49:35;101160.53;;;8.65;63.63
38038;BME280;23843;51.320;12.340;2024-03-07T07:52:21;101166.63;;;8.81;63.43
38038;BME280;23843;51.320;12.340;2024-03-07T07:55:21;101161.91;;;9.16;63.66
38038;BME280;23843;51.320;12.340;2024-03-07T07:58:07;101160.94;;;9.50;62.94
38038;BME280;23843;51.320;12.340;2024-03-07T08:00:52;101169.09;;;9.65;61.49
38038;BME280;23843;51.320;12.340;2024-03-07T08:03:38;101162.97;;;9.83;61.74
38038;BME280;23843;51.320;12.340;2024-03-07T08:06:23;101175.19;;;10.08;61.73
38038;BME280;23843;51.320;12.340;2024-03-07T08:09:09;101158.75;;;10.33;61.19
38038;BME280;23843;51.320;12.340;2024-03-07T08:11:55;101158.97;;;10.51;60.63
38038;BME280;23843;51.320;12.340;2024-03-07T08:14:41;101165.38;;;10.58;59.54
38038;BME280;23843;51.320;12.340;2024-03-07T08:17:26;101166.63;;;10.62;59.98
38038;BME280;23843;51.320;12.340;2024-03-07T08:20:13;101161.28;;;10.67;58.97
38038;BME280;23843;51.320;12.340;2024-03-07T08:22:58;101161.69;;;10.84;59.87
38038;BME280;23843;51.320;12.340;2024-03-07T08:25:44;101170.19;;;11.02;59.67
38038;BME280;23843;51.320;12.340;2024-03-07T08:28:31;101172.75;;;11.10;58.87
38038;BME280;23843;51.320;12.340;2024-03-07T08:31:16;101161.19;;;11.07;59.59
38038;BME280;23843;51.320;12.340;2024-03-07T08:34:02;101171.63;;;11.18;59.60
38038;BME280;23843;51.320;12.340;2024-03-07T08:36:47;101159.03;;;11.15;58.85
38038;BME280;23843;51.320;12.340;2024-03-07T08:39:33;101168.94;;;10.85;58.95
38038;BME280;23843;51.320;12.340;2024-03-07T08:42:18;101164.88;;;10.94;59.34
38038;BME280;23843;51.320;12.340;2024-03-07T08:45:05;101164.81;;;11.07;58.93
38038;BME280;23843;51.320;12.340;2024-03-07T08:47:52;101169.06;;;11.23;57.92
38038;BME280;23843;51.320;12.340;2024-03-07T08:50:38;101170.53;;;11.25;58.53
38038;BME280;23843;51.320;12.340;2024-03-07T08:53:23;101167.84;;;11.50;59.23
38038;BME280;23843;51.320;12.340;2024-03-07T08:56:08;101167.72;;;11.83;57.91
38038;BME280;23843;51.320;12.340;2024-03-07T08:58:54;101161.84;;;11.98;58.06
38038;BME280;23843;51.320;12.340;2024-03-07T09:01:41;101164.78;;;12.03;57.93
38038;BME280;23843;51.320;12.340;2024-03-07T09:04:26;101173.69;;;12.18;57.02
38038;BME280;23843;51.320;12.340;2024-03-07T09:07:12;101164.00;;;12.21;57.68
38038;BME280;23843;51.320;12.340;2024-03-07T09:09:57;101162.94;;;12.46;58.41
38038;BME280;23843;51.320;12.340;2024-03-07T09:12:44;101170.88;;;12.68;57.96
38038;BME280;23843;51.320;12.340;2024-03-07T09:15:29;101170.78;;;12.99;57.99
38038;BME280;23843;51.320;12.340;2024-03-07T09:18:16;101165.97;;;13.06;56.16
38038;BME280;23843;51.320;12.340;2024-03-07T09:21:02;101154.81;;;13.06;57.52
38038;BME280;23843;51.320;12.340;2024-03-07T09:23:48;101158.38;;;13.50;56.88
38038;BME280;23843;51.320;12.340;2024-03-07T09:26:33;101166.13;;;13.66;55.36
38038;BME280;23843;51.320;12.340;2024-03-07T09:29:19;101162.84;;;13.69;55.05
38038;BME280;23843;51.320;12.340;2024-03-07T09:32:05;101158.84;;;13.77;55.46
38038;BME280;23843;51.320;12.340;2024-03-07T09:34:52;101162.50;;;13.77;54.20
38038;BME280;23843;51.320;12.340;2024-03-07T09:37:39;101161.13;;;13.68;53.30
38038;BME280;23843;51.320;12.340;2024-03-07T09:40:24;101161.13;;;13.68;53.21
38038;BME280;23843;51.320;12.340;2024-03-07T09:43:12;101173.44;;;13.79;53.22
38038;BME280;23843;51.320;12.340;2024-03-07T09:45:58;101161.28;;;13.73;53.07
38038;BME280;23843;51.320;12.340;2024-03-07T09:48:44;101160.16;;;13.74;52.50
38038;BME280;23843;51.320;12.340;2024-03-07T09:51:31;101159.81;;;13.71;52.99
38038;BME280;23843;51.320;12.340;2024-03-07T09:54:18;101155.41;;;13.63;51.31
38038;BME280;23843;51.320;12.340;2024-03-07T09:57:05;101155.59;;;13.32;52.38
38038;BME280;23843;51.320;12.340;2024-03-07T09:59:51;101157.75;;;13.30;52.88
38038;BME280;23843;51.320;12.340;2024-03-07T10:02:38;101168.34;;;13.03;51.07
38038;BME280;23843;51.320;12.340;2024-03-07T10:05:26;101155.16;;;12.73;50.47
38038;BME280;23843;51.320;12.340;2024-03-07T10:08:13;101159.44;;;12.51;50.14
38038;BME280;23843;51.320;12.340;2024-03-07T10:10:59;101162.63;;;12.30;50.29
38038;BME280;23843;51.320;12.340;2024-03-07T10:13:45;101163.28;;;12.00;48.54
38038;BME280;23843;51.320;12.340;2024-03-07T10:16:30;101162.75;;;11.41;50.38
38038;BME280;23843;51.320;12.340;2024-03-07T10:19:16;101171.25;;;11.08;50.30
38038;BME280;23843;51.320;12.340;2024-03-07T10:22:01;101177.72;;;10.75;50.44
38038;BME280;23843;51.320;12.340;2024-03-07T10:24:52;101173.94;;;10.50;51.31
38038;BME280;23843;51.320;12.340;2024-03-07T10:27:37;101162.38;;;10.40;50.86
38038;BME280;23843;51.320;12.340;2024-03-07T10:30:23;101172.84;;;10.25;50.65
38038;BME280;23843;51.320;12.340;2024-03-07T10:33:08;101178.56;;;10.03;50.81
38038;BME280;23843;51.320;12.340;2024-03-07T10:35:54;101162.94;;;9.76;49.67
38038;BME280;23843;51.320;12.340;2024-03-07T10:38:39;101168.47;;;9.56;51.48
38038;BME280;23843;51.320;12.340;2024-03-07T10:41:28;101163.28;;;9.47;51.09
38038;BME280;23843;51.320;12.340;2024-03-07T10:44:19;101162.41;;;9.33;50.89
38038;BME280;23843;51.320;12.340;2024-03-07T10:47:05;101158.09;;;9.24;50.92
38038;BME280;23843;51.320;12.340;2024-03-07T10:49:59;101168.50;;;9.15;51.41
38038;BME280;23843;51.320;12.340;2024-03-07T10:52:49;101159.66;;;8.98;51.00
38038;BME280;23843;51.320;12.340;2024-03-07T10:55:42;101155.78;;;8.86;50.71
38038;BME280;23843;51.320;12.340;2024-03-07T10:58:37;101160.19;;;8.74;51.56
38038;BME280;23843;51.320;12.340;2024-03-07T11:01:30;101156.53;;;8.67;51.74
38038;BME280;23843;51.320;12.340;2024-03-07T11:04:17;101159.69;;;8.64;51.93
38038;BME280;23843;51.320;12.340;2024-03-07T11:07:03;101145.59;;;8.59;51.13
38038;BME280;23843;51.320;12.340;2024-03-07T11:09:49;101144.47;;;8.47;52.02
38038;BME280;23843;51.320;12.340;2024-03-07T11:12:36;101142.28;;;8.42;52.16
38038;BME280;23843;51.320;12.340;2024-03-07T11:15:26;101145.66;;;8.38;51.80
38038;BME280;23843;51.320;12.340;2024-03-07T11:18:12;101140.44;;;8.28;50.80
38038;BME280;23843;51.320;12.340;2024-03-07T11:20:58;101141.25;;;8.22;52.37
38038;BME280;23843;51.320;12.340;2024-03-07T11:23:45;101145.06;;;8.21;51.84
38038;BME280;23843;51.320;12.340;2024-03-07T11:26:30;101133.75;;;8.16;51.68
38038;BME280;23843;51.320;12.340;2024-03-07T11:29:40;101124.34;;;8.10;52.29
38038;BME280;23843;51.320;12.340;2024-03-07T11:32:29;101134.28;;;8.05;51.87
38038;BME280;23843;51.320;12.340;2024-03-07T11:35:14;101154.06;;;8.02;51.70
38038;BME280;23843;51.320;12.340;2024-03-07T11:38:00;101126.13;;;7.97;51.84
38038;BME280;23843;51.320;12.340;2024-03-07T11:40:47;101127.84;;;7.98;51.91
38038;BME280;23843;51.320;12.340;2024-03-07T11:43:35;101135.50;;;7.96;52.01
38038;BME280;23843;51.320;12.340;2024-03-07T11:46:21;101122.31;;;7.98;51.66
38038;BME280;23843;51.320;12.340;2024-03-07T11:49:07;101122.53;;;7.96;51.56
38038;BME280;23843;51.320;12.340;2024-03-07T11:51:53;101126.34;;;7.95;52.43
38038;BME280;23843;51.320;12.340;2024-03-07T11:54:39;101129.69;;;7.91;52.64
38038;BME280;23843;51.320;12.340;2024-03-07T11:57:24;101123.72;;;7.87;52.52
38038;BME280;23843;51.320;12.340;2024-03-07T12:00:11;101113.72;;;7.86;52.73
38038;BME280;23843;51.320;12.340;2024-03-07T12:02:56;101119.63;;;7.83;52.11
38038;BME280;23843;51.320;12.340;2024-03-07T12:05:43;101128.28;;;7.73;52.02
38038;BME280;23843;51.320;12.340;2024-03-07T12:08:29;101121.59;;;7.68;52.35
38038;BME280;23843;51.320;12.340;2024-03-07T12:11:14;101124.97;;;7.63;51.87
38038;BME280;23843;51.320;12.340;2024-03-07T12:14:00;101143.84;;;7.60;51.39
38038;BME280;23843;51.320;12.340;2024-03-07T12:16:46;101126.34;;;7.53;52.06
38038;BME280;23843;51.320;12.340;2024-03-07T12:19:33;101120.75;;;7.46;51.46
38038;BME280;23843;51.320;12.340;2024-03-07T12:22:20;101125.69;;;7.51;52.17
38038;BME280;23843;51.320;12.340;2024-03-07T12:25:06;101110.41;;;7.55;52.44
38038;BME280;23843;51.320;12.340;2024-03-07T12:28:03;101123.19;;;7.56;52.67
38038;BME280;23843;51.320;12.340;2024-03-07T12:30:50;101124.50;;;7.60;52.09
38038;BME280;23843;51.320;12.340;2024-03-07T12:33:36;101117.53;;;7.64;53.32
38038;BME280;23843;51.320;12.340;2024-03-07T12:36:21;101117.16;;;7.67;52.87
38038;BME280;23843;51.320;12.340;2024-03-07T12:39:08;101120.03;;;7.59;51.71
38038;BME280;23843;51.320;12.340;2024-03-07T12:41:56;101119.31;;;7.50;52.54
38038;BME280;23843;51.320;12.340;2024-03-07T12:44:41;101107.53;;;7.41;52.40
38038;BME280;23843;51.320;12.340;2024-03-07T12:47:27;101112.78;;;7.36;52.58
38038;BME280;23843;51.320;12.340;2024-03-07T12:50:13;101106.72;;;7.26;52.36
38038;BME280;23843;51.320;12.340;2024-03-07T12:52:58;101116.91;;;7.26;52.42
38038;BME280;23843;51.320;12.340;2024-03-07T12:55:45;101096.72;;;7.25;52.96
38038;BME280;23843;51.320;12.340;2024-03-07T12:58:30;101099.66;;;7.24;52.99
38038;BME280;23843;51.320;12.340;2024-03-07T13:01:16;101090.31;;;7.25;52.18
38038;BME280;23843;51.320;12.340;2024-03-07T13:03:53;101091.84;;;7.27;52.62
38038;BME280;23843;51.320;12.340;2024-03-07T13:06:38;101087.19;;;7.28;52.69
38038;BME280;23843;51.320;12.340;2024-03-07T13:09:24;101079.63;;;7.36;52.51
38038;BME280;23843;51.320;12.340;2024-03-07T13:12:11;101084.50;;;7.34;52.50
38038;BME280;23843;51.320;12.340;2024-03-07T13:14:56;101078.78;;;7.36;52.26
38038;BME280;23843;51.320;12.340;2024-03-07T13:17:42;101082.66;;;7.41;52.50
38038;BME280;23843;51.320;12.340;2024-03-07T13:20:27;101083.94;;;7.46;52.37
38038;BME280;23843;51.320;12.340;2024-03-07T13:23:13;101082.97;;;7.53;51.73
38038;BME280;23843;51.320;12.340;2024-03-07T13:25:58;101084.09;;;7.59;51.44
38038;BME280;23843;51.320;12.340;2024-03-07T13:28:45;101074.09;;;7.58;51.66
38038;BME280;23843;51.320;12.340;2024-03-07T13:31:31;101071.78;;;7.61;52.69
38038;BME280;23843;51.320;12.340;2024-03-07T13:34:17;101072.25;;;7.65;52.19
38038;BME280;23843;51.320;12.340;2024-03-07T13:37:02;101073.97;;;7.66;51.88
38038;BME280;23843;51.320;12.340;2024-03-07T13:39:48;101068.88;;;7.69;51.95
38038;BME280;23843;51.320;12.340;2024-03-07T13:42:33;101080.78;;;7.70;52.13
38038;BME280;23843;51.320;12.340;2024-03-07T13:45:21;101073.97;;;7.66;51.67
38038;BME280;23843;51.320;12.340;2024-03-07T13:48:08;101088.66;;;7.66;51.82
38038;BME280;23843;51.320;12.340;2024-03-07T13:50:55;101059.91;;;7.67;51.99
38038;BME280;23843;51.320;12.340;2024-03-07T13:53:40;101069.91;;;7.68;52.34
38038;BME280;23843;51.320;12.340;2024-03-07T13:56:34;101073.81;;;7.74;52.16
38038;BME280;23843;51.320;12.340;2024-03-07T14:03:23;101072.97;;;7.73;51.93
38038;BME280;23843;51.320;12.340;2024-03-07T14:06:03;101063.16;;;7.71;52.31
38038;BME280;23843;51.320;12.340;2024-03-07T14:12:04;101083.75;;;7.68;52.57
38038;BME280;23843;51.320;12.340;2024-03-07T14:15:11;101069.47;;;7.65;52.33
38038;BME280;23843;51.320;12.340;2024-03-07T14:18:01;101066.91;;;7.63;52.88
38038;BME280;23843;51.320;12.340;2024-03-07T14:20:54;101078.81;;;7.64;52.33
38038;BME280;23843;51.320;12.340;2024-03-07T14:23:35;101061.38;;;7.63;52.07
38038;BME280;23843;51.320;12.340;2024-03-07T14:26:37;101072.63;;;7.62;52.46
38038;BME280;23843;51.320;12.340;2024-03-07T14:29:19;101061.97;;;7.59;52.50
38038;BME280;23843;51.320;12.340;2024-03-07T14:31:46;101057.50;;;7.58;52.17
38038;BME280;23843;51.320;12.340;2024-03-07T14:34:16;101064.09;;;7.57;52.06